createdAt,value
2022-12-18T00:01:20.932Z,98830.09
2022-12-18T00:03:48.597Z,98812.66
2022-12-18T00:06:16.613Z,98822.13
2022-12-18T00:08:45.635Z,98806.97
2022-12-18T00:11:18.581Z,98810.97
2022-12-18T00:13:46.099Z,98807.78
2022-12-18T00:16:22.188Z,98805.78
2022-12-18T00:18:50.857Z,98806.28
2022-12-18T00:21:18.420Z,98809.88
2022-12-18T00:23:47.119Z,98810.78
2022-12-18T00:26:17.531Z,98809.88
2022-12-18T00:28:45.780Z,98815.91
2022-12-18T00:31:15.733Z,98810.59
2022-12-18T00:33:43.509Z,98811.53
2022-12-18T00:36:13.373Z,98808.88
2022-12-18T00:38:40.504Z,98801.59
2022-12-18T00:41:09.242Z,98803.84
2022-12-18T00:43:37.399Z,98790.94
2022-12-18T00:46:04.833Z,98784.16
2022-12-18T00:48:32.543Z,98790.50
2022-12-18T00:50:59.958Z,98785.44
2022-12-18T00:53:26.984Z,98786.47
2022-12-18T00:55:54.007Z,98784.03
2022-12-18T00:58:21.135Z,98772.94
2022-12-18T01:00:48.434Z,98776.88
2022-12-18T01:03:15.955Z,98780.81
2022-12-18T01:05:43.485Z,98772.34
2022-12-18T01:08:10.697Z,98775.72
2022-12-18T01:10:37.833Z,98767.72
2022-12-18T01:13:04.932Z,98773.91
2022-12-18T01:15:32.145Z,98772.50
2022-12-18T01:17:59.154Z,98770.03
2022-12-18T01:20:26.208Z,98769.75
2022-12-18T01:22:53.251Z,98773.63
2022-12-18T01:25:20.321Z,98771.97
2022-12-18T01:27:47.422Z,98781.34
2022-12-18T01:30:14.539Z,98781.06
2022-12-18T01:32:41.634Z,98779.06
2022-12-18T01:35:09.272Z,98782.66
2022-12-18T01:37:36.297Z,98772.94
2022-12-18T01:40:03.477Z,98772.66
2022-12-18T01:42:30.626Z,98774.31
2022-12-18T01:45:12.721Z,98769.44
2022-12-18T01:47:41.735Z,98770.38
2022-12-18T01:50:19.632Z,98776.06
2022-12-18T01:52:50.559Z,98768.75
2022-12-18T01:55:22.142Z,98772.78
2022-12-18T01:57:50.912Z,98763.53
2022-12-18T02:00:20.686Z,98760.84
2022-12-18T02:02:48.500Z,98758.66
2022-12-18T02:05:19.784Z,98763.97
2022-12-18T02:08:09.891Z,98761.78
2022-12-18T02:10:56.377Z,98765.47
2022-12-18T02:13:35.676Z,98763.44
2022-12-18T02:16:36.199Z,98760.03
2022-12-18T02:19:14.776Z,98753.44
2022-12-18T02:22:04.977Z,98763.09
2022-12-18T02:24:46.402Z,98762.34
2022-12-18T02:27:14.587Z,98753.06
2022-12-18T02:29:58.642Z,98760.31
2022-12-18T02:32:29.970Z,98752.16
2022-12-18T02:34:58.557Z,98758.00
2022-12-18T02:37:28.476Z,98759.56
2022-12-18T02:39:58.655Z,98751.13
2022-12-18T02:42:26.494Z,98747.75
2022-12-18T02:44:58.715Z,98753.50
2022-12-18T02:47:31.306Z,98746.72
2022-12-18T02:50:01.318Z,98751.31
2022-12-18T02:52:42.915Z,98759.28
2022-12-18T02:55:36.523Z,98757.56
2022-12-18T02:58:30.689Z,98757.00
2022-12-18T03:01:27.310Z,98751.91
2022-12-18T03:04:02.676Z,98747.75
2022-12-18T03:06:33.969Z,98735.91
2022-12-18T03:09:08.906Z,98742.41
2022-12-18T03:11:59.381Z,98738.72
2022-12-18T03:14:30.282Z,98744.53
2022-12-18T03:17:02.285Z,98746.72
2022-12-18T03:19:33.239Z,98747.94
2022-12-18T03:22:03.183Z,98745.28
2022-12-18T03:24:32.701Z,98739.22
2022-12-18T03:27:03.876Z,98751.31
2022-12-18T03:29:54.923Z,98744.53
2022-12-18T03:32:34.561Z,98746.56
2022-12-18T03:35:06.020Z,98761.59
2022-12-18T03:37:33.798Z,98760.97
2022-12-18T03:40:01.076Z,98761.22
2022-12-18T03:42:38.842Z,98759.94
2022-12-18T03:45:12.550Z,98760.13
2022-12-18T03:47:50.004Z,98766.38
2022-12-18T03:50:35.777Z,98764.19
2022-12-18T03:53:30.957Z,98777.78
2022-12-18T03:56:00.589Z,98768.75
2022-12-18T03:58:30.139Z,98780.91
2022-12-18T04:01:01.540Z,98768.75
2022-12-18T04:03:30.900Z,98779.81
2022-12-18T04:06:00.408Z,98782.50
2022-12-18T04:08:28.081Z,98787.22
2022-12-18T04:10:55.181Z,98786.03
2022-12-18T04:13:29.316Z,98786.28
2022-12-18T04:15:56.565Z,98782.41
2022-12-18T04:18:23.663Z,98788.78
2022-12-18T04:20:51.047Z,98793.63
2022-12-18T04:23:18.087Z,98796.13
2022-12-18T04:25:45.114Z,98792.25
2022-12-18T04:28:12.237Z,98791.50
2022-12-18T04:30:39.374Z,98789.34
2022-12-18T04:33:11.258Z,98784.72
2022-12-18T04:35:38.470Z,98780.59
2022-12-18T04:38:07.978Z,98783.69
2022-12-18T04:40:36.623Z,98783.25
2022-12-18T04:43:04.454Z,98783.53
2022-12-18T04:45:32.813Z,98780.84
2022-12-18T04:48:01.502Z,98780.59
2022-12-18T04:50:28.722Z,98788.06
2022-12-18T04:52:57.321Z,98787.22
2022-12-18T04:55:24.428Z,98793.44
2022-12-18T04:57:51.482Z,98793.91
2022-12-18T05:00:18.669Z,98788.78
2022-12-18T05:02:45.884Z,98778.56
2022-12-18T05:05:13.110Z,98784.63
2022-12-18T05:07:40.155Z,98783.19
2022-12-18T05:10:09.051Z,98784.38
2022-12-18T05:12:57.427Z,98788.22
2022-12-18T05:15:24.495Z,98792.09
2022-12-18T05:17:51.488Z,98785.75
2022-12-18T05:20:19.478Z,98792.84
2022-12-18T05:22:46.606Z,98795.03
2022-12-18T05:25:13.766Z,98792.09
2022-12-18T05:27:40.778Z,98799.53
2022-12-18T05:30:09.030Z,98805.50
2022-12-18T05:32:36.103Z,98804.94
2022-12-18T05:35:03.261Z,98800.53
2022-12-18T05:37:30.357Z,98793.72
2022-12-18T05:39:57.341Z,98794.19
2022-12-18T05:42:24.649Z,98794.69
2022-12-18T05:44:51.862Z,98799.25
2022-12-18T05:47:18.981Z,98805.00
2022-12-18T05:49:46.039Z,98801.63
2022-12-18T05:52:13.205Z,98800.00
2022-12-18T05:54:40.860Z,98807.66
2022-12-18T05:57:07.883Z,98798.22
2022-12-18T05:59:35.221Z,98801.63
2022-12-18T06:02:02.380Z,98796.31
2022-12-18T06:04:30.065Z,98794.09
2022-12-18T06:06:57.325Z,98798.22
2022-12-18T06:09:24.529Z,98791.44
2022-12-18T06:11:53.165Z,98796.78
2022-12-18T06:14:20.437Z,98783.19
2022-12-18T06:16:47.442Z,98786.78
2022-12-18T06:19:17.323Z,98785.84
2022-12-18T06:21:44.775Z,98784.91
2022-12-18T06:24:11.764Z,98789.50
2022-12-18T06:26:40.243Z,98779.78
2022-12-18T06:29:07.476Z,98780.50
2022-12-18T06:31:34.649Z,98775.19
2022-12-18T06:34:04.388Z,98775.72
2022-12-18T06:36:32.382Z,98771.72
2022-12-18T06:38:59.740Z,98769.34
2022-12-18T06:41:26.829Z,98783.09
2022-12-18T06:43:59.395Z,98786.00
2022-12-18T06:46:26.991Z,98789.91
2022-12-18T06:48:54.017Z,98787.69
2022-12-18T06:51:23.247Z,98787.41
2022-12-18T06:53:51.070Z,98782.81
2022-12-18T06:56:18.352Z,98785.47
2022-12-18T06:58:45.647Z,98793.03
2022-12-18T07:01:13.344Z,98796.09
2022-12-18T07:03:44.194Z,98798.34
2022-12-18T07:06:19.480Z,98805.59
2022-12-18T07:08:47.550Z,98804.09
2022-12-18T07:11:15.213Z,98807.31
2022-12-18T07:13:42.821Z,98814.13
2022-12-18T07:16:18.360Z,98816.78
2022-12-18T07:18:49.670Z,98827.72
2022-12-18T07:21:19.148Z,98834.94
2022-12-18T07:23:49.374Z,98842.03
2022-12-18T07:26:19.744Z,98846.88
2022-12-18T07:28:47.063Z,98856.81
2022-12-18T07:31:16.903Z,98862.59
2022-12-18T07:33:44.663Z,98871.50
2022-12-18T07:36:12.048Z,98871.50
2022-12-18T07:38:39.723Z,98872.69
2022-12-18T07:41:12.756Z,98876.09
2022-12-18T07:43:41.005Z,98877.56
2022-12-18T07:46:10.577Z,98870.56
2022-12-18T07:48:39.370Z,98883.16
2022-12-18T07:51:07.818Z,98885.38
2022-12-18T07:53:36.141Z,98886.28
2022-12-18T07:56:26.571Z,98890.56
2022-12-18T07:58:53.627Z,98900.47
2022-12-18T08:01:21.333Z,98894.88
2022-12-18T08:03:48.683Z,98897.25
2022-12-18T08:06:17.682Z,98898.75
2022-12-18T08:08:44.678Z,98905.53
2022-12-18T08:11:11.795Z,98912.53
2022-12-18T08:13:39.120Z,98906.47
2022-12-18T08:16:08.238Z,98905.25
2022-12-18T08:18:37.279Z,98900.22
2022-12-18T08:21:16.235Z,98911.44
2022-12-18T08:23:44.021Z,98913.66
2022-12-18T08:26:14.151Z,98919.97
2022-12-18T08:28:41.945Z,98915.69
2022-12-18T08:31:09.935Z,98916.69
2022-12-18T08:33:39.203Z,98923.31
2022-12-18T08:36:07.361Z,98926.25
2022-12-18T08:38:34.777Z,98927.56
2022-12-18T08:41:04.077Z,98934.59
2022-12-18T08:43:49.575Z,98945.63
2022-12-18T08:46:16.835Z,98952.81
2022-12-18T08:48:44.947Z,98956.88
2022-12-18T08:51:12.284Z,98952.66
2022-12-18T08:53:40.163Z,98960.94
2022-12-18T08:56:07.864Z,98968.28
2022-12-18T08:58:35.067Z,98972.53
2022-12-18T09:01:03.757Z,98975.84
2022-12-18T09:03:30.924Z,98976.91
2022-12-18T09:05:58.136Z,98985.72
2022-12-18T09:08:25.157Z,98983.16
2022-12-18T09:10:52.734Z,98983.53
2022-12-18T09:13:20.189Z,98997.66
2022-12-18T09:15:50.078Z,98997.66
2022-12-18T09:18:19.349Z,98998.97
2022-12-18T09:20:47.191Z,98998.78
2022-12-18T09:23:14.824Z,98996.19
2022-12-18T09:25:42.074Z,99002.53
2022-12-18T09:28:15.803Z,99003.53
2022-12-18T09:30:47.565Z,99014.19
2022-12-18T09:33:15.022Z,99011.63
2022-12-18T09:35:43.622Z,99020.44
2022-12-18T09:38:15.069Z,99026.31
2022-12-18T09:40:55.165Z,99029.06
2022-12-18T09:43:29.635Z,99032.75
2022-12-18T09:46:13.313Z,99036.41
2022-12-18T09:48:59.254Z,99035.66
2022-12-18T09:51:59.220Z,99038.84
2022-12-18T09:54:50.115Z,99038.09
2022-12-18T09:57:21.936Z,99037.25
2022-12-18T09:59:56.709Z,99036.72
2022-12-18T10:02:28.100Z,99038.84
2022-12-18T10:05:18.241Z,99035.63
2022-12-18T10:07:57.513Z,99038.75
2022-12-18T10:10:35.170Z,99037.75
2022-12-18T10:13:48.811Z,99035.34
2022-12-18T10:16:40.540Z,99032.41
2022-12-18T10:19:39.199Z,99032.41
2022-12-18T10:22:36.372Z,99041.41
2022-12-18T10:25:07.369Z,99042.16
2022-12-18T10:27:34.541Z,99038.31
2022-12-18T10:30:05.942Z,99044.19
2022-12-18T10:32:34.486Z,99041.50
2022-12-18T10:35:01.506Z,99032.28
2022-12-18T10:37:31.135Z,99034.97
2022-12-18T10:40:21.484Z,99032.00
2022-12-18T10:43:05.679Z,99034.97
2022-12-18T10:45:32.879Z,99029.56
2022-12-18T10:48:00.242Z,99027.63
2022-12-18T10:51:08.628Z,99028.91
2022-12-18T10:53:24.392Z,99022.81
2022-12-18T10:55:53.726Z,99022.91
2022-12-18T10:58:34.673Z,99022.19
2022-12-18T11:01:09.474Z,99014.56
2022-12-18T11:03:42.416Z,99010.34
2022-12-18T11:06:12.595Z,99008.09
2022-12-18T11:08:42.311Z,99008.09
2022-12-18T11:11:24.047Z,99001.59
2022-12-18T11:14:16.665Z,99010.13
2022-12-18T11:17:23.938Z,98995.91
2022-12-18T11:19:42.181Z,99002.22
2022-12-18T11:22:22.684Z,99001.47
2022-12-18T11:27:57.250Z,99001.72
2022-12-18T11:30:27.049Z,99001.78
2022-12-18T11:33:16.089Z,99008.97
2022-12-18T11:35:46.234Z,99007.53
2022-12-18T11:38:19.701Z,99018.22
2022-12-18T11:40:52.876Z,99010.88
2022-12-18T11:43:33.335Z,99019.06
2022-12-18T11:46:06.825Z,99017.94
2022-12-18T11:48:55.697Z,99012.81
2022-12-18T11:51:30.607Z,99016.75
2022-12-18T11:53:57.990Z,99019.41
2022-12-18T11:56:36.336Z,99020.47
2022-12-18T11:59:21.814Z,99019.03
2022-12-18T12:01:54.996Z,99012.75
2022-12-18T12:04:48.077Z,99009.16
2022-12-18T12:07:38.372Z,99007.94
2022-12-18T12:10:35.979Z,99013.81
2022-12-18T12:13:21.161Z,99006.88
2022-12-18T12:16:06.181Z,99007.88
2022-12-18T12:19:02.465Z,99003.84
2022-12-18T12:21:42.059Z,98999.53
2022-12-18T12:24:33.899Z,98993.75
2022-12-18T12:27:26.409Z,98992.56
2022-12-18T12:29:53.396Z,98984.06
2022-12-18T12:32:49.887Z,98986.47
2022-12-18T12:35:54.472Z,98979.47
2022-12-18T12:38:26.725Z,98971.69
2022-12-18T12:41:03.936Z,98961.28
2022-12-18T12:43:50.248Z,98960.09
2022-12-18T12:46:22.158Z,98957.44
2022-12-18T12:49:02.473Z,98953.09
2022-12-18T12:51:34.170Z,98956.44
2022-12-18T12:54:04.058Z,98952.97
2022-12-18T12:56:46.464Z,98947.69
2022-12-18T12:59:28.607Z,98942.94
2022-12-18T13:02:24.624Z,98941.25
2022-12-18T13:05:22.767Z,98938.38
2022-12-18T13:08:04.592Z,98940.28
2022-12-18T13:10:35.908Z,98937.16
2022-12-18T13:13:05.732Z,98932.84
2022-12-18T13:16:05.848Z,98933.88
2022-12-18T13:18:34.681Z,98938.50
2022-12-18T13:21:03.569Z,98930.72
2022-12-18T13:23:40.755Z,98922.00
2022-12-18T13:26:09.363Z,98927.16
2022-12-18T13:28:48.390Z,98926.91
2022-12-18T13:31:31.278Z,98919.16
2022-12-18T13:34:28.259Z,98909.72
2022-12-18T13:36:58.786Z,98912.81
2022-12-18T13:39:35.987Z,98908.19
2022-12-18T13:42:07.242Z,98909.44
2022-12-18T13:44:42.067Z,98897.06
2022-12-18T13:47:36.521Z,98894.13
2022-12-18T13:50:10.785Z,98888.31
2022-12-18T13:52:39.612Z,98883.91
2022-12-18T13:55:16.578Z,98880.75
2022-12-18T13:57:43.630Z,98874.91
2022-12-18T14:00:35.221Z,98872.28
2022-12-18T14:03:02.558Z,98868.13
2022-12-18T14:05:36.267Z,98861.50
2022-12-18T14:08:17.392Z,98858.13
2022-12-18T14:10:50.249Z,98860.06
2022-12-18T14:13:21.264Z,98857.19
2022-12-18T14:15:50.392Z,98859.38
2022-12-18T14:18:53.705Z,98855.28
2022-12-18T14:21:25.468Z,98852.31
2022-12-18T14:24:24.891Z,98850.94
2022-12-18T14:26:53.027Z,98850.41
2022-12-18T14:29:24.587Z,98852.38
2022-12-18T14:32:18.306Z,98847.56
2022-12-18T14:34:46.580Z,98846.31
2022-12-18T14:37:16.415Z,98843.88
2022-12-18T14:40:03.245Z,98839.78
2022-12-18T14:42:35.041Z,98852.41
2022-12-18T14:45:42.544Z,98847.75
2022-12-18T14:48:13.354Z,98845.13
2022-12-18T14:50:41.767Z,98843.47
2022-12-18T14:53:24.028Z,98849.53
2022-12-18T14:55:52.091Z,98843.50
2022-12-18T14:58:20.010Z,98848.53
2022-12-18T15:00:47.170Z,98844.19
2022-12-18T15:03:22.360Z,98842.31
2022-12-18T15:05:50.284Z,98852.53
2022-12-18T15:08:37.390Z,98837.72
2022-12-18T15:11:08.977Z,98849.41
2022-12-18T15:13:44.599Z,98852.31
2022-12-18T15:16:14.075Z,98856.91
2022-12-18T15:18:44.411Z,98849.81
2022-12-18T15:21:17.697Z,98846.19
2022-12-18T15:24:02.959Z,98846.00
2022-12-18T15:26:38.521Z,98854.28
2022-12-18T15:29:05.650Z,98847.50
2022-12-18T15:31:36.087Z,98847.72
2022-12-18T15:34:13.634Z,98856.97
2022-12-18T15:36:41.359Z,98847.44
2022-12-18T15:39:11.600Z,98844.06
2022-12-18T15:41:39.054Z,98847.69
2022-12-18T15:44:24.436Z,98850.81
2022-12-18T15:46:51.602Z,98854.97
2022-12-18T15:49:18.701Z,98851.06
2022-12-18T15:51:47.182Z,98865.22
2022-12-18T15:54:17.451Z,98855.94
2022-12-18T15:57:02.863Z,98860.09
2022-12-18T15:59:29.983Z,98857.91
2022-12-18T16:01:57.975Z,98862.25
2022-12-18T16:04:25.954Z,98862.50
2022-12-18T16:09:40.203Z,98855.75
2022-12-18T16:12:13.460Z,98862.06
2022-12-18T16:14:40.482Z,98857.94
2022-12-18T16:17:11.896Z,98852.75
2022-12-18T16:19:38.937Z,98853.47
2022-12-18T16:22:06.589Z,98856.13
2022-12-18T16:24:37.357Z,98849.59
2022-12-18T16:27:04.797Z,98841.31
2022-12-18T16:29:31.941Z,98841.31
2022-12-18T16:32:00.921Z,98843.72
2022-12-18T16:34:35.672Z,98849.81
2022-12-18T16:37:06.627Z,98848.66
2022-12-18T16:39:35.949Z,98844.06
2022-12-18T16:42:05.716Z,98842.13
2022-12-18T16:44:34.360Z,98843.66
2022-12-18T16:47:03.391Z,98836.31
2022-12-18T16:49:31.016Z,98837.56
2022-12-18T16:51:58.445Z,98839.25
2022-12-18T16:54:25.731Z,98839.03
2022-12-18T16:56:52.924Z,98851.66
2022-12-18T16:59:20.277Z,98854.59
2022-12-18T17:01:47.556Z,98857.47
2022-12-18T17:04:15.787Z,98850.13
2022-12-18T17:06:45.369Z,98860.56
2022-12-18T17:09:15.667Z,98858.38
2022-12-18T17:11:43.505Z,98864.25
2022-12-18T17:14:19.357Z,98865.97
2022-12-18T17:16:49.169Z,98871.78
2022-12-18T17:19:18.384Z,98862.03
2022-12-18T17:21:48.057Z,98865.69
2022-12-18T17:24:15.267Z,98861.03
2022-12-18T17:26:42.603Z,98859.09
2022-12-18T17:29:14.057Z,98858.56
2022-12-18T17:31:41.246Z,98855.19
2022-12-18T17:34:09.794Z,98850.28
2022-12-18T17:36:37.618Z,98843.25
2022-12-18T17:39:06.623Z,98840.78
2022-12-18T17:41:34.305Z,98840.28
2022-12-18T17:44:06.550Z,98827.84
2022-12-18T17:46:34.604Z,98835.09
2022-12-18T17:49:03.720Z,98831.19
2022-12-18T17:51:30.783Z,98831.88
2022-12-18T17:53:58.074Z,98831.38
2022-12-18T17:56:25.490Z,98818.72
2022-12-18T17:58:52.823Z,98816.75
2022-12-18T18:01:23.629Z,98824.25
2022-12-18T18:03:51.883Z,98821.84
2022-12-18T18:06:21.977Z,98827.38
2022-12-18T18:08:49.418Z,98823.47
2022-12-18T18:11:37.254Z,98829.25
2022-12-18T18:14:08.553Z,98829.94
2022-12-18T18:16:39.142Z,98831.84
2022-12-18T18:19:09.696Z,98831.09
2022-12-18T18:21:40.388Z,98828.41
2022-12-18T18:24:10.317Z,98828.19
2022-12-18T18:26:38.085Z,98828.91
2022-12-18T18:29:07.966Z,98829.41
2022-12-18T18:31:40.950Z,98835.69
2022-12-18T18:34:12.791Z,98841.03
2022-12-18T18:36:39.942Z,98842.94
2022-12-18T18:39:07.075Z,98853.34
2022-12-18T18:41:36.206Z,98848.97
2022-12-18T18:44:03.355Z,98854.31
2022-12-18T18:46:30.539Z,98867.66
2022-12-18T18:48:57.675Z,98861.31
2022-12-18T18:51:25.669Z,98869.53
2022-12-18T18:53:54.793Z,98882.13
2022-12-18T18:59:11.415Z,98893.31
2022-12-18T19:01:39.147Z,98899.81
2022-12-18T19:04:06.950Z,98898.78
2022-12-18T19:06:34.742Z,98897.34
2022-12-18T19:09:02.841Z,98901.22
2022-12-18T19:11:48.924Z,98902.84
2022-12-18T19:14:16.557Z,98898.25
2022-12-18T19:16:48.363Z,98906.28
2022-12-18T19:19:19.932Z,98905.53
2022-12-18T19:21:47.651Z,98908.19
2022-12-18T19:24:14.655Z,98908.19
2022-12-18T19:26:41.840Z,98905.53
2022-12-18T19:29:11.460Z,98906.78
2022-12-18T19:31:38.868Z,98914.28
2022-12-18T19:34:07.699Z,98910.44
2022-12-18T19:36:37.938Z,98914.56
2022-12-18T19:39:16.928Z,98921.81
2022-12-18T19:41:44.794Z,98913.53
2022-12-18T19:44:14.047Z,98922.78
2022-12-18T19:46:42.613Z,98922.56
2022-12-18T19:49:11.107Z,98925.31
2022-12-18T19:51:38.541Z,98926.75
2022-12-18T19:54:05.977Z,98923.16
2022-12-18T19:56:35.165Z,98933.34
2022-12-18T19:59:04.400Z,98927.78
2022-12-18T20:01:31.992Z,98935.03
2022-12-18T20:04:01.185Z,98934.56
2022-12-18T20:06:33.199Z,98931.69
2022-12-18T20:09:03.732Z,98934.63
2022-12-18T20:11:31.212Z,98934.44
2022-12-18T20:13:58.784Z,98925.47
2022-12-18T20:16:25.964Z,98927.94
2022-12-18T20:18:53.878Z,98940.09
2022-12-18T20:21:20.919Z,98936.63
2022-12-18T20:23:48.057Z,98939.97
2022-12-18T20:26:15.323Z,98940.66
2022-12-18T20:28:42.818Z,98945.72
2022-12-18T20:31:13.743Z,98945.44
2022-12-18T20:33:42.603Z,98944.66
2022-12-18T20:36:14.454Z,98945.03
2022-12-18T20:38:42.759Z,98951.31
2022-12-18T20:41:12.196Z,98955.19
2022-12-18T20:43:39.904Z,98956.41
2022-12-18T20:46:09.963Z,98968.81
2022-12-18T20:48:37.680Z,98967.34
2022-12-18T20:51:08.023Z,98971.50
2022-12-18T20:53:36.208Z,98972.94
2022-12-18T20:56:10.091Z,98973.22
2022-12-18T20:58:37.217Z,98986.84
2022-12-18T21:01:07.114Z,98985.19
2022-12-18T21:03:34.357Z,98987.59
2022-12-18T21:06:01.399Z,98987.75
2022-12-18T21:08:28.559Z,98994.31
2022-12-18T21:10:56.123Z,98994.03
2022-12-18T21:13:23.394Z,98990.44
2022-12-18T21:15:54.337Z,98994.88
2022-12-18T21:18:21.383Z,98983.91
2022-12-18T21:20:48.418Z,98994.59
2022-12-18T21:23:17.081Z,98983.91
2022-12-18T21:25:45.661Z,98984.63
2022-12-18T21:28:13.929Z,98990.19
2022-12-18T21:30:41.206Z,98982.63
2022-12-18T21:33:08.240Z,98980.16
2022-12-18T21:35:36.463Z,98984.72
2022-12-18T21:38:05.827Z,98985.59
2022-12-18T21:40:33.129Z,98987.81
2022-12-18T21:43:18.630Z,98979.09
2022-12-18T21:45:45.797Z,98978.53
2022-12-18T21:48:12.828Z,98985.59
2022-12-18T21:50:39.868Z,98987.81
2022-12-18T21:53:07.051Z,98990.78
2022-12-18T21:55:34.205Z,98990.78
2022-12-18T21:58:01.232Z,98989.47
2022-12-18T22:00:28.362Z,99002.03
2022-12-18T22:03:16.886Z,99006.81
2022-12-18T22:05:42.390Z,99007.75
2022-12-18T22:08:09.565Z,99012.16
2022-12-18T22:10:38.053Z,99012.16
2022-12-18T22:13:06.579Z,99008.28
2022-12-18T22:15:34.218Z,99009.22
2022-12-18T22:18:01.351Z,99016.75
2022-12-18T22:20:30.000Z,99012.44
2022-12-18T22:22:57.704Z,99014.19
2022-12-18T22:25:24.733Z,99010.31
2022-12-18T22:28:10.534Z,99017.09
2022-12-18T22:30:37.590Z,99023.91
2022-12-18T22:33:05.148Z,99018.56
2022-12-18T22:35:32.277Z,99028.31
2022-12-18T22:38:00.446Z,99030.22
2022-12-18T22:40:28.669Z,99027.78
2022-12-18T22:42:56.390Z,99036.44
2022-12-18T22:45:24.743Z,99036.91
2022-12-18T22:47:52.096Z,99029.09
2022-12-18T22:50:19.268Z,99036.34
2022-12-18T22:52:46.299Z,99025.25
2022-12-18T22:55:13.425Z,99026.88
2022-12-18T22:57:40.679Z,99020.56
2022-12-18T23:00:11.619Z,99031.69
2022-12-18T23:02:38.811Z,99029.44
2022-12-18T23:05:06.517Z,99030.19
2022-12-18T23:07:33.516Z,99029.19
2022-12-18T23:10:00.977Z,99024.31
2022-12-18T23:12:28.490Z,99026.00
2022-12-18T23:14:55.531Z,99017.44
2022-12-18T23:17:22.597Z,99023.78
2022-12-18T23:19:49.680Z,99023.03
2022-12-18T23:22:17.519Z,99017.69
2022-12-18T23:24:44.873Z,99016.69
2022-12-18T23:27:12.295Z,99021.03
2022-12-18T23:29:40.309Z,99010.09
2022-12-18T23:32:08.541Z,99014.97
2022-12-18T23:34:35.611Z,99011.09
2022-12-18T23:37:04.037Z,98996.94
2022-12-18T23:39:31.314Z,99005.41
2022-12-18T23:42:01.756Z,98996.59
2022-12-18T23:44:29.037Z,99001.38
2022-12-18T23:46:56.457Z,98991.44
2022-12-18T23:49:23.697Z,98986.09
2022-12-18T23:51:50.829Z,98984.66
2022-12-18T23:54:28.397Z,98985.34
2022-12-18T23:57:00.619Z,98987.75
2022-12-18T23:59:28.064Z,98983.38
